Adel, Indiana
Current Conditions -  °F | °C
As of 2:56 PM on Sunday 23 Nov 2014 (Local Time) from KBMG Reporting Station
Light Rain Light Rain  
Wind Chill: 52°   Ceiling: 1500
Heat Index: 52°   Visibility: 9mi
Dew Point: 51°   Wind: 14mph
Humidity: 97%   Direction: 140°SE
Pressure: 29.56"   Gusts: NA
Location:  39.3008°N, 86.8112°W
Report Text: KBMG 231956Z 14012KT 9SM -RA SCT008 BKN015 OVC022 11/11 A2956 RMK AO2 P0000 T01110106
Loading
Personal Weather Stations






























Interactive Weather Map New forecast layout! Learn more

10-Day Weather Forecast

Advertisements
Track Severe Weather on mobile